City of Colorado Springs Municipal Airport Colorado Springs US
ICAO: KCOS
IATA: COS
Category: Large
Scheduled Services: Yes

Elevation: 6187 ft
TransAlt. 18000 ft.

Airport Communications:
SPRINGS APP:118.5
ATIS:125
CLNC DEL:134.45
CTAF:124.15
SPRINGS DEP:124
GND:121.7
AFRC OPS:29.84
PMSV PETERSON METRO:34.92
PETERSON PTD:122.85
DENVER RDO:122.25
SPRINGS TWR:119.9
UNICOM:122.95

KCOS Zoom In..

If you have problems with the map follow the link
https://www.worldairports.se/pages/airport.php?
ICAO=KCOS

Runways:

(A) RW 13 length 8269 ft width 150 ft
---- / hdg 126

(B) RW 17L length 13501 ft width 150 ft
ILS 109.10 / hdg 171

(C) RW 17R length 11022 ft width 150 ft
---- / hdg 171

(D) RW 31 length 8269 ft width 150 ft
---- / hdg 306

(E) RW 35L length 11022 ft width 150 ft
ILS 109.90 / hdg 351

(F) RW 35R length 13501 ft width 150 ft
ILS 109.10 / hdg 351

Location; KCOS
Day. 16 / Time. 02.54 Zulu
* Altimeter: 30.19
* Temperature: 03° c. 37.4°f.
* Wind from: 130° Speed 04 kn.
Dewpoint: -06° c.
Visibility: 10 Statute Miles.
Clouds: Scattered 22000 ft.

KCOS 160254Z 13004KT 10SM SCT220 03/M06 A3019 RMK AO2 SLP217 T00331056 51007 $


Wind From 130°
Speed 04 kn.

 
 
jpsmedia.com for Web Design worldairports.se 2018   terms of use